Time;durP1;ratioP1;P1;durP2;ratioP2;P2;SDS_P1;SDS_P2;PMS_P1;PMS_P2;Temp;Humidity;BMP_temperature;BMP_pressure;BME280_temperature;BME280_humidity;BME280_pressure;Samples;Min_cycle;Max_cycle;Signal;HPM_P1;HPM_P2
2022/04/21 00:00:13;;;;;;;81.95;50.65;;;;;;;7.86;83.70;100210.93;1732386;82;20998;-71
2022/04/21 00:02:41;;;;;;;79.82;50.73;;;;;;;7.85;83.72;100212.41;1764294;81;21075;-71
2022/04/21 00:05:08;;;;;;;85.00;53.23;;;;;;;7.81;83.72;100208.42;1764142;81;21115;-71
2022/04/21 00:07:34;;;;;;;78.92;49.65;;;;;;;7.77;83.71;100209.72;1732275;82;21095;-71
2022/04/21 00:10:01;;;;;;;77.47;49.05;;;;;;;7.75;83.73;100209.03;1764180;81;21056;-71
2022/04/21 00:12:28;;;;;;;87.20;53.40;;;;;;;7.74;83.74;100204.73;1744894;82;21588;-71
2022/04/21 00:14:54;;;;;;;96.92;60.35;;;;;;;7.74;83.75;100202.08;1744894;82;20983;-71
2022/04/21 00:17:20;;;;;;;75.67;48.75;;;;;;;7.74;83.77;100199.42;1764203;81;21097;-71
2022/04/21 00:19:46;;;;;;;76.42;49.15;;;;;;;7.76;83.78;100194.77;1732249;82;21126;-71
2022/04/21 00:24:56;;;;;;;67.08;44.13;;;;;;;7.74;83.85;100194.92;1763783;81;20958;-71
2022/04/21 00:27:22;;;;;;;67.35;45.67;;;;;;;7.73;83.87;100199.91;1731874;82;21673;-71
2022/04/21 00:29:49;;;;;;;66.12;44.15;;;;;;;7.74;83.88;100202.08;1763965;81;21003;-70
2022/04/21 00:32:14;;;;;;;64.27;43.17;;;;;;;7.72;83.90;100206.69;1764113;81;21180;-71
2022/04/21 00:34:40;;;;;;;62.95;40.40;;;;;;;7.70;83.90;100210.01;1731839;81;20908;-71
2022/04/21 00:37:06;;;;;;;60.58;38.23;;;;;;;7.70;83.93;100214.83;1764191;81;21050;-71
2022/04/21 00:39:33;;;;;;;57.93;38.30;;;;;;;7.70;83.98;100213.98;1764009;81;21058;-71
2022/04/21 00:41:59;;;;;;;56.85;36.95;;;;;;;7.68;84.01;100207.50;1732296;82;21067;-71
2022/04/21 00:44:26;;;;;;;57.05;38.15;;;;;;;7.67;84.01;100210.32;1764276;81;21159;-71
2022/04/21 00:46:53;;;;;;;67.70;46.42;;;;;;;7.65;84.03;100212.28;1744849;82;21515;-71
2022/04/21 00:49:20;;;;;;;81.53;49.27;;;;;;;7.66;84.05;100206.00;1764098;81;21049;-71
2022/04/21 00:51:46;;;;;;;97.57;56.95;;;;;;;7.63;84.08;100202.33;1732250;82;21009;-71
2022/04/21 00:54:13;;;;;;;86.65;55.60;;;;;;;7.61;84.09;100206.45;1763944;81;20993;-71
2022/04/21 00:56:39;;;;;;;69.35;44.85;;;;;;;7.60;84.07;100210.61;1744811;82;21488;-71
2022/04/21 00:59:06;;;;;;;55.50;36.13;;;;;;;7.62;84.12;100203.31;1744946;82;20957;-71
2022/04/21 01:04:18;;;;;;;52.13;35.25;;;;;;;7.64;84.19;100207.46;1763945;81;21514;-70
2022/04/21 01:06:45;;;;;;;59.10;38.48;;;;;;;7.62;84.23;100207.29;1748270;79;21037;-70
2022/04/21 01:09:11;;;;;;;59.00;38.92;;;;;;;7.60;84.23;100213.27;1828436;78;21137;-70
2022/04/21 01:11:38;;;;;;;67.45;41.42;;;;;;;7.61;84.25;100213.09;1828191;78;21503;-70
2022/04/21 01:14:05;;;;;;;84.20;59.33;;;;;;;7.60;84.29;100215.91;1828278;78;21029;-70
2022/04/21 01:16:31;;;;;;;86.17;57.10;;;;;;;7.58;84.30;100216.05;1828409;78;21041;-70
2022/04/21 01:18:57;;;;;;;81.15;53.92;;;;;;;7.59;84.29;100216.41;1828267;78;21731;-71
2022/04/21 01:21:23;;;;;;;81.42;50.50;;;;;;;7.60;84.33;100216.72;1828320;78;21142;-70
2022/04/21 01:23:49;;;;;;;77.92;51.42;;;;;;;7.61;84.35;100217.55;1827882;78;21013;-71
2022/04/21 01:26:16;;;;;;;73.62;45.65;;;;;;;7.59;84.36;100213.75;1828316;78;20994;-71
2022/04/21 01:28:43;;;;;;;72.80;44.53;;;;;;;7.61;84.38;100218.88;1828404;78;20990;-70
2022/04/21 01:31:09;;;;;;;68.52;43.52;;;;;;;7.67;84.39;100215.62;1828400;78;21013;-70
2022/04/21 01:33:35;;;;;;;68.25;42.70;;;;;;;7.70;84.42;100219.30;1828454;78;21173;-71
2022/04/21 01:36:01;;;;;;;66.55;42.98;;;;;;;7.71;84.41;100218.28;1828393;78;21463;-70
2022/04/21 01:41:12;;;;;;;71.80;44.33;;;;;;;7.76;84.46;100218.66;1828527;78;20991;-71
2022/04/21 01:43:40;;;;;;;66.07;42.48;;;;;;;7.74;84.48;100218.00;1828573;78;21514;-71
2022/04/21 01:46:06;;;;;;;72.27;44.40;;;;;;;7.73;84.53;100208.36;1828417;78;21093;-71
2022/04/21 01:48:32;;;;;;;66.12;43.33;;;;;;;7.72;84.53;100201.38;1828367;78;20878;-71
2022/04/21 01:50:58;;;;;;;74.27;45.92;;;;;;;7.72;84.57;100201.38;1828545;78;20951;-71
2022/04/21 01:53:24;;;;;;;72.45;44.90;;;;;;;7.73;84.58;100203.89;1828040;78;20847;-70
2022/04/21 01:55:51;;;;;;;70.40;43.28;;;;;;;7.76;84.58;100202.73;1828532;78;21014;-71
2022/04/21 01:58:17;;;;;;;74.50;44.88;;;;;;;7.76;84.60;100204.06;1826245;78;21511;-71
2022/04/21 02:00:43;;;;;;;84.15;48.20;;;;;;;7.74;84.59;100196.24;1825027;78;21495;-72
2022/04/21 02:03:09;;;;;;;75.95;44.90;;;;;;;7.75;84.61;100197.92;1825213;78;20978;-71
2022/04/21 02:05:35;;;;;;;70.90;46.33;;;;;;;7.76;84.63;100197.43;1825286;78;20979;-71
2022/04/21 02:08:02;;;;;;;68.67;42.00;;;;;;;7.77;84.64;100191.14;1825190;78;21276;-71
2022/04/21 02:10:30;;;;;;;78.35;44.20;;;;;;;7.76;84.66;100192.12;1824808;78;21154;-70
2022/04/21 02:12:57;;;;;;;79.27;47.78;;;;;;;7.74;84.67;100182.17;1825114;78;21018;-70
2022/04/21 02:15:23;;;;;;;90.92;51.00;;;;;;;7.72;84.66;100185.45;1825076;78;20990;-70
2022/04/21 02:17:50;;;;;;;91.47;54.05;;;;;;;7.69;84.68;100181.30;1825065;78;21061;-70
2022/04/21 02:20:16;;;;;;;89.55;52.40;;;;;;;7.68;84.69;100182.77;1825306;78;21022;-70
2022/04/21 02:22:43;;;;;;;89.72;50.60;;;;;;;7.71;84.71;100182.45;1825274;78;21455;-70
2022/04/21 02:25:11;;;;;;;89.28;48.33;;;;;;;7.68;84.68;100178.79;1824845;78;21475;-71
2022/04/21 02:27:38;;;;;;;87.25;45.88;;;;;;;7.67;84.70;100177.15;1825178;78;20982;-71
2022/04/21 02:30:06;;;;;;;87.08;51.20;;;;;;;7.68;84.75;100178.30;1825242;78;21038;-70
2022/04/21 02:32:32;;;;;;;79.67;47.90;;;;;;;7.69;84.76;100181.30;1825464;78;20998;-70
2022/04/21 02:34:58;;;;;;;75.90;45.92;;;;;;;7.72;84.76;100184.97;1825438;78;21941;-70
2022/04/21 02:37:24;;;;;;;66.57;42.40;;;;;;;7.74;84.78;100185.63;1825349;78;20954;-70
2022/04/21 02:39:50;;;;;;;75.85;44.05;;;;;;;7.74;84.79;100183.50;1825278;78;20990;-70
2022/04/21 02:42:18;;;;;;;77.53;43.08;;;;;;;7.72;84.83;100177.49;1825437;78;20982;-70
2022/04/21 02:44:44;;;;;;;74.07;43.65;;;;;;;7.72;84.85;100180.14;1825045;78;20982;-70
2022/04/21 02:47:10;;;;;;;67.35;42.48;;;;;;;7.69;84.87;100177.81;1825389;78;21518;-70
2022/04/21 02:49:36;;;;;;;70.10;38.53;;;;;;;7.69;84.87;100187.09;1825271;78;21443;-70
2022/04/21 02:52:06;;;;;;;66.33;40.48;;;;;;;7.67;84.89;100187.77;1825494;78;20987;-70
2022/04/21 02:57:21;;;;;;;65.37;39.83;;;;;;;7.68;84.89;100193.39;1695599;84;21094;-70
2022/04/21 02:59:55;;;;;;;63.98;39.95;;;;;;;7.68;84.91;100197.37;1829085;78;21040;-70
2022/04/21 03:02:22;;;;;;;66.57;39.03;;;;;;;7.72;84.91;100191.59;1828891;78;21007;-70
2022/04/21 03:04:49;;;;;;;69.07;41.55;;;;;;;7.72;84.96;100188.95;1829234;78;21491;-70
2022/04/21 03:07:17;;;;;;;75.25;43.30;;;;;;;7.74;84.97;100188.80;1829085;78;21053;-70
2022/04/21 03:09:44;;;;;;;82.60;44.83;;;;;;;7.76;84.98;100184.99;1829118;78;21463;-70
2022/04/21 03:12:10;;;;;;;82.97;43.68;;;;;;;7.78;84.99;100190.13;1829078;78;21289;-70
2022/04/21 03:14:40;;;;;;;82.92;43.20;;;;;;;7.80;84.99;100195.64;1828775;78;21534;-70
2022/04/21 03:17:08;;;;;;;98.47;46.18;;;;;;;7.79;85.00;100199.77;1829365;78;22119;-70
2022/04/21 03:19:34;;;;;;;100.38;42.85;;;;;;;7.78;85.03;100195.44;1828696;78;21459;-70
2022/04/21 03:24:45;;;;;;;88.67;42.93;;;;;;;7.75;85.03;100191.77;1829078;78;21828;-70
2022/04/21 03:27:11;;;;;;;86.08;39.18;;;;;;;7.75;85.07;100195.75;1828400;78;20991;-70
2022/04/21 03:29:39;;;;;;;79.20;40.40;;;;;;;7.76;85.06;100204.06;1829102;78;20934;-70
2022/04/21 03:32:10;;;;;;;78.20;35.52;;;;;;;7.76;85.07;100193.45;1828891;78;21050;-70
2022/04/21 03:34:41;;;;;;;108.87;36.00;;;;;;;7.76;85.07;100196.10;1829142;78;21080;-70
2022/04/21 03:37:11;;;;;;;67.15;33.78;;;;;;;7.70;85.05;100203.37;1829040;78;21559;-70
2022/04/21 03:39:37;;;;;;;79.90;34.65;;;;;;;7.70;85.08;100208.68;1828897;78;21030;-70
2022/04/21 03:42:07;;;;;;;80.77;35.63;;;;;;;7.72;85.10;100212.83;1829071;78;21006;-70
2022/04/21 03:44:34;;;;;;;83.37;37.90;;;;;;;7.69;85.10;100214.97;1828943;78;21494;-70
2022/04/21 03:47:01;;;;;;;77.03;39.27;;;;;;;7.68;85.10;100218.60;1803576;78;20991;-70
2022/04/21 03:49:30;;;;;;;91.08;40.30;;;;;;;7.68;85.14;100213.30;1829106;78;21144;-70
2022/04/21 03:51:57;;;;;;;105.95;40.95;;;;;;;7.65;85.13;100217.59;1829213;78;20995;-70
2022/04/21 03:54:23;;;;;;;100.12;40.35;;;;;;;7.65;85.15;100217.09;1828872;78;21042;-70
2022/04/21 03:56:50;;;;;;;87.50;40.92;;;;;;;7.66;85.15;100221.92;1829212;78;21018;-70
2022/04/21 03:59:20;;;;;;;101.12;41.92;;;;;;;7.62;85.16;100227.19;1828303;78;21042;-71
2022/04/21 04:01:46;;;;;;;117.80;50.12;;;;;;;7.63;85.19;100223.56;1828212;78;26701;-70
2022/04/21 04:04:12;;;;;;;105.00;50.98;;;;;;;7.62;85.21;100217.91;1828368;78;20994;-70
2022/04/21 04:12:09;;;;;;;108.72;53.73;;;;;;;7.61;85.23;100221.53;1828550;78;21037;-70
2022/04/21 04:14:35;;;;;;;96.10;49.67;;;;;;;7.61;85.26;100214.91;1828503;78;21058;-72
2022/04/21 04:17:01;;;;;;;82.12;43.68;;;;;;;7.62;85.31;100220.56;1828443;78;21503;-70
2022/04/21 04:19:27;;;;;;;76.87;42.73;;;;;;;7.64;85.33;100220.73;1828535;78;21502;-70
2022/04/21 04:21:53;;;;;;;74.32;39.15;;;;;;;7.65;85.38;100217.59;1828330;78;21525;-71
2022/04/21 04:24:19;;;;;;;68.02;39.03;;;;;;;7.70;85.42;100216.64;1828405;78;21613;-70
2022/04/21 04:26:45;;;;;;;73.92;39.13;;;;;;;7.75;85.47;100215.66;1828592;78;21131;-70
2022/04/21 04:29:11;;;;;;;68.85;37.98;;;;;;;7.74;85.46;100224.11;1827979;78;20986;-70
2022/04/21 04:31:40;;;;;;;68.22;37.75;;;;;;;7.77;85.54;100220.34;1828644;78;21447;-71
2022/04/21 04:34:08;;;;;;;58.85;35.33;;;;;;;7.81;85.60;100215.06;1828250;78;20963;-71
2022/04/21 04:36:34;;;;;;;56.15;34.25;;;;;;;7.82;85.64;100215.38;1828192;78;21022;-70
2022/04/21 04:39:00;;;;;;;65.95;38.10;;;;;;;7.83;85.68;100217.05;1775127;78;21070;-71
2022/04/21 04:44:10;;;;;;;131.03;69.87;;;;;;;7.87;85.72;100217.08;1828502;78;21073;-71
2022/04/21 04:46:37;;;;;;;140.15;76.80;;;;;;;7.83;85.74;100218.38;1828429;78;20997;-70
2022/04/21 04:49:06;;;;;;;94.52;54.23;;;;;;;7.81;85.75;100213.73;1828741;78;20994;-70
2022/04/21 04:51:39;;;;;;;82.73;47.07;;;;;;;7.82;85.75;100212.72;1828129;78;21333;-71
2022/04/21 04:54:08;;;;;;;82.20;48.08;;;;;;;7.82;85.76;100214.05;1828272;78;21141;-70
2022/04/21 04:56:35;;;;;;;72.15;41.63;;;;;;;7.84;85.75;100213.41;1828477;78;21037;-71
2022/04/21 04:59:01;;;;;;;67.45;43.80;;;;;;;7.84;85.76;100216.07;1828246;78;20986;-70
2022/04/21 05:01:39;;;;;;;57.03;36.20;;;;;;;7.85;85.77;100213.23;1828514;78;21400;-71
2022/04/21 05:04:05;;;;;;;53.85;33.80;;;;;;;7.87;85.76;100221.06;1827843;78;21639;-70
2022/04/21 05:06:39;;;;;;;49.53;32.58;;;;;;;7.87;85.80;100217.08;1824667;78;20978;-70
2022/04/21 05:09:09;;;;;;;49.48;32.20;;;;;;;7.86;85.80;100214.08;1824903;78;21029;-71
2022/04/21 05:11:38;;;;;;;49.30;31.12;;;;;;;7.86;85.81;100218.89;1828398;78;20987;-71
2022/04/21 05:14:05;;;;;;;50.35;33.13;;;;;;;7.89;85.86;100221.72;1828696;78;21034;-70
2022/04/21 05:16:31;;;;;;;53.52;34.18;;;;;;;7.92;85.85;100222.24;1828445;78;21133;-70
2022/04/21 05:18:58;;;;;;;52.75;34.43;;;;;;;7.95;85.86;100225.10;1828424;78;20986;-71
2022/04/21 05:21:24;;;;;;;51.77;36.48;;;;;;;7.96;85.92;100224.09;1828298;78;20993;-70
2022/04/21 05:23:55;;;;;;;54.88;36.45;;;;;;;7.95;85.88;100223.77;1828388;78;20984;-70
2022/04/21 05:26:22;;;;;;;54.25;36.20;;;;;;;7.97;85.91;100227.09;1828302;78;21002;-70
2022/04/21 05:28:49;;;;;;;54.00;35.25;;;;;;;7.99;85.92;100219.78;1828169;78;21478;-70
2022/04/21 05:31:16;;;;;;;46.42;31.30;;;;;;;8.04;85.93;100222.81;1828362;78;21042;-70
2022/04/21 05:33:43;;;;;;;41.40;29.82;;;;;;;8.03;85.91;100226.45;1828247;78;21475;-70
2022/04/21 05:36:10;;;;;;;41.65;29.18;;;;;;;8.02;85.89;100228.27;1828152;78;20994;-70
2022/04/21 05:38:37;;;;;;;37.55;25.72;;;;;;;8.06;85.92;100226.13;1828325;78;21014;-70
2022/04/21 05:41:04;;;;;;;35.13;25.50;;;;;;;8.07;85.90;100223.82;1828564;78;21135;-70
2022/04/21 05:43:45;;;;;;;36.17;24.60;;;;;;;8.11;85.92;100227.83;1828464;78;21029;-70
2022/04/21 05:46:13;;;;;;;32.90;25.20;;;;;;;8.15;85.94;100233.66;1828495;78;21100;-70
2022/04/21 05:48:40;;;;;;;34.08;26.30;;;;;;;8.16;85.93;100229.53;1828463;78;20975;-70
2022/04/21 05:51:13;;;;;;;38.90;28.75;;;;;;;8.19;85.94;100226.55;1828357;78;21499;-70
2022/04/21 05:53:38;;;;;;;37.25;27.98;;;;;;;8.21;85.94;100221.90;1826702;78;21047;-70
2022/04/21 05:56:06;;;;;;;35.25;27.67;;;;;;;8.22;85.94;100214.28;1828303;78;21033;-70
2022/04/21 05:58:32;;;;;;;38.50;27.62;;;;;;;8.28;85.98;100220.77;1791393;78;21017;-70
2022/04/21 06:01:00;;;;;;;34.50;25.92;;;;;;;8.29;85.93;100223.30;1766402;80;21049;-70
2022/04/21 06:03:27;;;;;;;30.15;23.65;;;;;;;8.31;85.93;100227.95;1785056;78;20967;-70
2022/04/21 06:05:53;;;;;;;31.42;23.25;;;;;;;8.34;85.91;100225.46;1776367;80;21102;-70
2022/04/21 06:08:19;;;;;;;32.80;24.23;;;;;;;8.36;85.90;100225.66;1770620;80;21046;-70
2022/04/21 06:10:46;;;;;;;26.35;21.37;;;;;;;8.36;85.88;100233.63;1771315;80;21017;-70
2022/04/21 06:13:15;;;;;;;30.12;22.85;;;;;;;8.37;85.88;100233.95;1788111;80;21078;-70
2022/04/21 06:15:40;;;;;;;30.88;22.70;;;;;;;8.36;85.85;100242.94;1782033;80;21010;-70
2022/04/21 06:18:06;;;;;;;30.72;23.47;;;;;;;8.37;85.85;100241.11;1770461;80;21077;-70
2022/04/21 06:20:34;;;;;;;31.68;23.95;;;;;;;8.41;85.85;100239.77;1756439;80;21004;-70
2022/04/21 06:23:00;;;;;;;34.78;26.40;;;;;;;8.45;85.85;100241.96;1787865;80;21023;-70
2022/04/21 06:25:26;;;;;;;35.13;26.02;;;;;;;8.51;85.86;100237.33;1795350;80;21030;-70
2022/04/21 06:27:52;;;;;;;40.10;27.60;;;;;;;8.53;85.84;100240.67;1787907;79;21065;-70
2022/04/21 06:30:19;;;;;;;37.45;26.37;;;;;;;8.56;85.81;100241.33;1755821;80;21155;-70
2022/04/21 06:32:45;;;;;;;39.83;27.60;;;;;;;8.55;85.78;100238.36;1758580;80;20970;-70
2022/04/21 06:35:12;;;;;;;36.35;26.20;;;;;;;8.53;85.73;100238.02;1795561;80;21475;-70
2022/04/21 06:37:39;;;;;;;46.05;31.15;;;;;;;8.57;85.71;100245.17;1793955;79;21030;-70
2022/04/21 06:40:06;;;;;;;43.25;28.27;;;;;;;8.58;85.68;100239.36;1758349;81;21054;-70
2022/04/21 06:42:32;;;;;;;39.58;28.05;;;;;;;8.59;85.66;100247.65;1758223;81;21124;-70
2022/04/21 06:50:27;;;;;;;38.50;26.85;;;;;;;8.81;85.64;100252.38;1758135;81;20979;-70
2022/04/21 06:52:53;;;;;;;35.75;27.77;;;;;;;8.81;85.59;100249.72;1758664;81;21499;-70
2022/04/21 06:55:19;;;;;;;38.30;28.12;;;;;;;8.81;85.58;100255.04;1758089;81;22139;-70
2022/04/21 06:57:45;;;;;;;36.60;27.67;;;;;;;8.84;85.57;100258.70;1758272;80;21066;-70
2022/04/21 07:00:12;;;;;;;38.45;26.23;;;;;;;8.81;85.50;100263.02;1763462;80;20919;-70
2022/04/21 07:02:38;;;;;;;36.88;26.25;;;;;;;8.76;85.47;100271.99;1762331;81;21038;-70
2022/04/21 07:05:12;;;;;;;34.60;26.00;;;;;;;8.72;85.42;100273.30;1754236;80;21483;-70
2022/04/21 07:07:42;;;;;;;35.33;26.20;;;;;;;8.63;85.36;100271.59;1750755;80;21812;-70
2022/04/21 07:10:10;;;;;;;35.00;25.40;;;;;;;8.59;85.33;100272.90;1750444;81;21039;-70
2022/04/21 07:12:36;;;;;;;39.92;27.95;;;;;;;8.58;85.29;100283.22;1772399;79;21443;-70
2022/04/21 07:15:06;;;;;;;35.17;26.55;;;;;;;8.52;85.24;100289.49;1772569;80;21086;-70
2022/04/21 07:17:33;;;;;;;34.15;28.30;;;;;;;8.51;85.21;100287.82;1778065;80;21002;-71
2022/04/21 07:19:59;;;;;;;36.42;27.62;;;;;;;8.49;85.19;100281.01;1789822;80;21042;-70
2022/04/21 07:22:25;;;;;;;42.13;32.85;;;;;;;8.48;85.17;100286.81;1789861;80;21456;-71
2022/04/21 07:24:54;;;;;;;42.50;31.65;;;;;;;8.44;85.18;100285.98;1789685;80;21464;-70
2022/04/21 07:27:20;;;;;;;43.50;32.60;;;;;;;8.41;85.12;100292.42;1789941;80;21574;-70
2022/04/21 07:29:46;;;;;;;42.20;32.23;;;;;;;8.38;85.12;100299.39;1790057;79;21027;-70
2022/04/21 07:32:13;;;;;;;42.50;31.07;;;;;;;8.34;85.08;100295.88;1751888;80;21517;-70
2022/04/21 07:34:39;;;;;;;44.75;31.35;;;;;;;8.32;85.09;100300.52;1750131;82;21001;-70
2022/04/21 07:37:05;;;;;;;41.18;30.17;;;;;;;8.31;85.04;100302.34;1755423;79;20975;-70
2022/04/21 07:39:32;;;;;;;44.20;31.37;;;;;;;8.31;85.03;100308.98;1792426;79;20980;-70
2022/04/21 07:41:58;;;;;;;48.00;34.00;;;;;;;8.30;85.04;100308.63;1774597;80;21074;-70
2022/04/21 07:44:28;;;;;;;42.43;31.10;;;;;;;8.28;85.00;100311.96;1774457;80;21968;-70
2022/04/21 07:46:55;;;;;;;48.87;35.70;;;;;;;8.29;85.00;100312.31;1774195;80;21074;-70
2022/04/21 07:54:50;;;;;;;47.27;31.95;;;;;;;8.30;84.96;100324.58;1763205;80;21042;-70
2022/04/21 07:57:16;;;;;;;45.58;31.52;;;;;;;8.29;84.95;100327.41;1768600;79;21773;-70
2022/04/21 07:59:42;;;;;;;46.65;30.12;;;;;;;8.34;84.96;100333.91;1753062;80;21018;-70
2022/04/21 08:02:08;;;;;;;45.33;30.70;;;;;;;8.37;84.94;100326.94;1758678;80;21038;-70
2022/04/21 08:04:37;;;;;;;51.42;31.37;;;;;;;8.40;84.96;100326.66;1769694;81;21006;-70
2022/04/21 08:07:04;;;;;;;45.30;28.85;;;;;;;8.42;84.96;100328.65;1769070;80;21128;-69
2022/04/21 08:09:30;;;;;;;43.35;28.38;;;;;;;8.51;84.95;100329.54;1766176;79;21204;-71
2022/04/21 08:11:56;;;;;;;44.10;29.65;;;;;;;8.55;84.95;100324.73;1765786;79;21528;-71
2022/04/21 08:14:24;;;;;;;44.77;28.17;;;;;;;8.61;84.99;100331.58;1767207;79;20978;-69
2022/04/21 08:16:54;;;;;;;43.33;27.67;;;;;;;8.67;85.00;100328.27;1761756;80;21034;-70
2022/04/21 08:19:21;;;;;;;44.77;28.32;;;;;;;8.75;85.00;100331.47;1767844;79;21502;-72
2022/04/21 08:21:50;;;;;;;45.85;29.00;;;;;;;8.81;85.00;100320.19;1751265;80;21123;-70
2022/04/21 08:32:43;;;;;;;45.45;29.95;;;;;;;8.83;84.87;100331.52;1757924;79;21057;-70
2022/04/21 08:35:07;;;;;;;43.00;27.82;;;;;;;8.86;84.84;100325.87;1762567;80;21949;-70
2022/04/21 08:37:36;;;;;;;38.85;24.52;;;;;;;8.91;84.83;100331.52;1753353;80;21581;-70
2022/04/21 08:40:06;;;;;;;41.23;22.95;;;;;;;8.95;84.79;100330.20;1757498;80;21014;-70
2022/04/21 08:42:39;;;;;;;36.77;22.98;;;;;;;8.91;84.73;100328.86;1749892;81;21011;-70
2022/04/21 08:45:07;;;;;;;43.75;26.73;;;;;;;8.97;84.75;100335.70;1766977;79;22300;-70
2022/04/21 08:47:33;;;;;;;48.98;28.42;;;;;;;9.12;84.73;100329.26;1761253;81;21968;-70
2022/04/21 08:50:07;;;;;;;40.10;25.32;;;;;;;9.29;84.70;100330.96;1758538;80;21101;-70
2022/04/21 08:52:34;;;;;;;38.70;22.98;;;;;;;9.39;84.65;100328.98;1757852;81;21038;-71
2022/04/21 08:55:02;;;;;;;43.78;22.52;;;;;;;9.51;84.60;100337.00;1752174;80;21036;-70
2022/04/21 08:57:30;;;;;;;36.00;20.20;;;;;;;9.58;84.53;100333.67;1758622;80;21018;-70
2022/04/21 08:59:57;;;;;;;33.23;19.80;;;;;;;9.61;84.44;100332.00;1754798;80;21675;-70
2022/04/21 09:02:41;;;;;;;30.35;18.80;;;;;;;9.57;84.37;100336.02;1733965;80;21066;-70
2022/04/21 09:05:08;;;;;;;35.73;20.48;;;;;;;9.56;84.35;100333.84;1756052;80;21000;-70
2022/04/21 09:07:45;;;;;;;30.55;20.15;;;;;;;9.49;84.26;100337.67;1757732;79;21022;-70
2022/04/21 09:10:12;;;;;;;38.23;22.62;;;;;;;9.49;84.21;100340.34;1725329;81;21512;-70
2022/04/21 09:12:47;;;;;;;38.10;23.10;;;;;;;9.47;84.11;100337.48;1751407;80;21158;-70
2022/04/21 09:15:16;;;;;;;36.23;22.95;;;;;;;9.37;84.03;100338.97;1753973;80;21848;-70
2022/04/21 09:17:47;;;;;;;37.45;22.25;;;;;;;9.26;83.96;100340.61;1766372;79;21030;-69
2022/04/21 09:20:16;;;;;;;34.23;21.42;;;;;;;9.18;83.89;100349.92;1755639;80;21144;-70
2022/04/21 09:22:49;;;;;;;36.08;23.12;;;;;;;9.16;83.85;100343.07;1759086;79;21019;-70
2022/04/21 09:25:15;;;;;;;40.23;23.35;;;;;;;9.20;83.77;100345.25;1739452;79;21238;-70
2022/04/21 09:27:43;;;;;;;36.17;22.90;;;;;;;9.29;83.73;100343.45;1752402;79;21014;-70
2022/04/21 09:30:12;;;;;;;31.52;20.60;;;;;;;9.43;83.70;100344.12;1769771;79;21569;-70
2022/04/21 09:32:40;;;;;;;32.25;21.05;;;;;;;9.58;83.66;100340.32;1770157;81;21034;-70
2022/04/21 09:35:08;;;;;;;30.45;21.45;;;;;;;9.63;83.60;100338.02;1766995;79;21536;-70
2022/04/21 09:37:50;;;;;;;35.15;21.73;;;;;;;9.70;83.53;100341.67;1758813;80;21087;-70
2022/04/21 09:40:19;;;;;;;37.30;23.75;;;;;;;9.77;83.44;100344.02;1761024;79;21067;-70
2022/04/21 09:42:59;;;;;;;39.33;24.98;;;;;;;9.74;83.35;100345.19;1742759;80;21096;-69
2022/04/21 09:48:22;;;;;;;48.90;30.90;;;;;;;9.71;83.15;100342.02;1750912;79;21026;-70
2022/04/21 09:50:53;;;;;;;44.93;27.95;;;;;;;9.63;83.00;100346.00;1757265;81;21172;-70
2022/04/21 09:53:23;;;;;;;39.00;24.25;;;;;;;9.56;82.93;100341.84;1752156;80;21018;-70
2022/04/21 09:55:50;;;;;;;;;;;;;;;9.50;82.85;100348.63;1768165;79;21690;-70
2022/04/21 09:58:16;;;;;;;29.75;20.02;;;;;;;9.43;82.75;100344.95;1768871;79;20153;-70
2022/04/21 10:00:42;;;;;;;33.60;21.10;;;;;;;9.38;82.70;100351.78;1771671;80;21022;-70
2022/04/21 10:03:09;;;;;;;29.02;20.40;;;;;;;9.36;82.68;100347.94;1769792;81;21160;-70
2022/04/21 10:05:36;;;;;;;32.67;21.70;;;;;;;9.34;82.64;100347.28;1770683;81;21003;-71
2022/04/21 10:08:05;;;;;;;32.15;21.25;;;;;;;9.33;82.59;100345.61;1770192;81;21727;-70
2022/04/21 10:10:32;;;;;;;35.45;21.65;;;;;;;9.34;82.54;100352.61;1770364;81;20982;-70
2022/04/21 10:13:02;;;;;;;34.15;22.27;;;;;;;9.38;82.51;100350.45;1770789;81;21022;-70
2022/04/21 10:15:29;;;;;;;34.95;21.93;;;;;;;9.42;82.48;100348.64;1770638;81;21156;-69
2022/04/21 10:17:55;;;;;;;28.65;19.07;;;;;;;9.52;82.46;100353.31;1770491;81;21046;-70
2022/04/21 10:20:23;;;;;;;29.72;19.07;;;;;;;9.61;82.44;100355.96;1770821;81;21023;-70
2022/04/21 10:22:50;;;;;;;32.23;19.20;;;;;;;9.71;82.42;100354.00;1770591;81;21003;-70
2022/04/21 10:25:16;;;;;;;29.67;19.32;;;;;;;9.79;82.35;100348.66;1770428;81;21046;-70
2022/04/21 10:27:45;;;;;;;30.40;20.12;;;;;;;9.85;82.32;100348.02;1740370;81;21091;-70
2022/04/21 10:30:24;;;;;;;26.62;17.52;;;;;;;9.99;82.31;100343.35;1770595;81;21182;-70
2022/04/21 10:32:54;;;;;;;25.80;17.48;;;;;;;10.14;82.24;100353.67;1740181;81;21021;-70
2022/04/21 10:35:35;;;;;;;28.62;17.80;;;;;;;10.16;82.23;100349.52;1770104;81;21467;-69
2022/04/21 10:38:17;;;;;;;27.17;18.32;;;;;;;10.10;82.13;100355.50;1770551;81;21492;-70
2022/04/21 10:41:03;;;;;;;24.72;16.30;;;;;;;10.07;82.10;100353.98;1768201;81;21841;-70
2022/04/21 10:43:54;;;;;;;25.60;17.12;;;;;;;10.00;81.99;100352.48;1770393;81;20990;-70
2022/04/21 10:46:29;;;;;;;23.77;17.52;;;;;;;9.91;81.93;100354.00;1770557;81;21146;-70
2022/04/21 10:48:55;;;;;;;28.10;20.12;;;;;;;9.88;81.88;100350.34;1770830;81;21546;-70
2022/04/21 10:57:33;;;;;;;29.60;19.90;;;;;;;9.72;81.67;100356.98;1770639;81;20986;-70
2022/04/21 11:00:08;;;;;;;31.68;20.52;;;;;;;9.70;81.69;100358.98;1770451;81;21065;-70
2022/04/21 11:02:41;;;;;;;29.72;21.12;;;;;;;9.72;81.69;100353.82;1770254;81;21061;-70
2022/04/21 11:05:33;;;;;;;34.63;23.12;;;;;;;9.81;81.70;100358.66;1770728;81;21620;-70
2022/04/21 11:08:02;;;;;;;34.27;22.42;;;;;;;9.95;81.65;100355.34;1770161;81;21171;-70
2022/04/21 11:10:42;;;;;;;34.30;23.02;;;;;;;10.04;81.59;100353.83;1770534;81;21061;-70
2022/04/21 11:13:14;;;;;;;32.40;22.25;;;;;;;10.15;81.59;100350.02;1744174;81;21061;-70
2022/04/21 11:15:50;;;;;;;35.70;22.00;;;;;;;10.20;81.52;100349.03;1770794;81;21007;-70
2022/04/21 11:18:21;;;;;;;32.63;20.37;;;;;;;10.28;81.51;100349.48;1770717;81;21487;-70
2022/04/21 11:20:49;;;;;;;28.67;19.02;;;;;;;10.31;81.45;100343.31;1770713;81;21153;-70
2022/04/21 11:23:33;;;;;;;31.62;19.35;;;;;;;10.40;81.40;100340.98;1770589;81;21476;-70
2022/04/21 11:26:06;;;;;;;30.65;20.30;;;;;;;10.53;81.38;100342.61;1770632;81;21006;-70
2022/04/21 11:28:32;;;;;;;29.30;20.10;;;;;;;10.68;81.32;100344.56;1769951;81;20990;-70
2022/04/21 11:31:00;;;;;;;28.73;20.45;;;;;;;10.80;81.29;100344.54;1770868;81;21014;-70
2022/04/21 11:33:26;;;;;;;34.08;22.67;;;;;;;10.91;81.25;100340.97;1770698;81;21525;-70
2022/04/21 11:36:08;;;;;;;28.23;19.50;;;;;;;11.31;81.26;100337.77;1770486;81;21491;-70
2022/04/21 11:38:36;;;;;;;26.48;19.17;;;;;;;11.73;81.15;100337.34;1767661;80;21065;-70
2022/04/21 11:41:03;;;;;;;134.55;57.75;;;;;;;11.98;80.99;100330.80;1763887;79;21566;-70
2022/04/21 11:43:29;;;;;;;249.27;154.20;;;;;;;12.16;80.79;100336.64;1748342;80;21115;-70
2022/04/21 11:46:05;;;;;;;44.42;30.20;;;;;;;12.07;80.58;100335.04;1755895;80;21143;-71
2022/04/21 11:48:37;;;;;;;23.25;16.37;;;;;;;12.16;80.36;100337.98;1768130;80;21062;-70
2022/04/21 11:51:04;;;;;;;20.43;15.72;;;;;;;12.20;80.17;100333.94;1770207;80;21053;-70
2022/04/21 11:53:34;;;;;;;20.40;14.95;;;;;;;12.32;79.99;100339.14;1763801;80;21012;-71
2022/04/21 11:56:00;;;;;;;19.62;13.55;;;;;;;12.24;79.65;100335.23;1765295;80;20994;-70
2022/04/21 11:58:31;;;;;;;18.00;12.88;;;;;;;12.13;79.38;100334.34;1763411;81;21090;-71
2022/04/21 12:06:46;;;;;;;17.87;11.97;;;;;;;12.04;78.84;100326.05;1762065;80;21050;-71
2022/04/21 12:09:14;;;;;;;19.45;13.13;;;;;;;11.99;78.64;100321.27;1774164;80;21046;-71
2022/04/21 12:11:42;;;;;;;19.12;13.95;;;;;;;11.99;78.43;100332.46;1772397;80;21145;-71
2022/04/21 12:14:08;;;;;;;23.57;16.82;;;;;;;12.05;78.29;100320.20;1747058;80;21101;-71
2022/04/21 12:16:48;;;;;;;52.08;33.75;;;;;;;12.14;78.14;100324.48;1768594;80;21431;-71